createdAt,value
2022-09-14T00:01:36.352Z,100445.25
2022-09-14T00:04:08.678Z,100450.59
2022-09-14T00:06:35.537Z,100441.88
2022-09-14T00:09:06.686Z,100438.72
2022-09-14T00:11:35.759Z,100437.94
2022-09-14T00:14:04.063Z,100430.34
2022-09-14T00:16:36.595Z,100425.28
2022-09-14T00:19:08.008Z,100426.81
2022-09-14T00:21:37.751Z,100423.31
2022-09-14T00:24:07.110Z,100422.59
2022-09-14T00:26:34.294Z,100420.09
2022-09-14T00:29:04.716Z,100421.63
2022-09-14T00:31:38.270Z,100411.88
2022-09-14T00:34:08.317Z,100408.53
2022-09-14T00:36:41.588Z,100406.38
2022-09-14T00:39:09.011Z,100404.34
2022-09-14T00:41:39.152Z,100394.81
2022-09-14T00:44:11.738Z,100387.69
2022-09-14T00:46:47.645Z,100391.25
2022-09-14T00:49:32.344Z,100388.69
2022-09-14T00:52:24.115Z,100390.22
2022-09-14T00:54:56.479Z,100391.34
2022-09-14T00:57:27.783Z,100374.19
2022-09-14T00:59:55.577Z,100325.41
2022-09-14T01:02:25.632Z,100391.91
2022-09-14T01:04:52.916Z,100381.53
2022-09-14T01:08:03.676Z,100375.03
2022-09-14T01:10:58.021Z,100397.34
2022-09-14T01:13:37.359Z,100403.03
2022-09-14T01:16:16.862Z,100391.78
2022-09-14T01:18:57.894Z,100392.09
2022-09-14T01:21:38.281Z,100395.28
2022-09-14T01:24:54.282Z,100389.09
2022-09-14T01:27:34.469Z,100381.28
2022-09-14T01:30:11.357Z,100380.88
2022-09-14T01:33:14.609Z,100381.38
2022-09-14T01:35:51.065Z,100382.31
2022-09-14T01:38:26.561Z,100387.88
2022-09-14T01:40:54.554Z,100380.72
2022-09-14T01:43:46.496Z,100383.38
2022-09-14T01:46:18.213Z,100380.53
2022-09-14T01:49:02.376Z,100380.53
2022-09-14T01:51:41.382Z,100381.88
2022-09-14T01:54:17.798Z,100387.06
2022-09-14T01:56:58.919Z,100383.19
2022-09-14T01:59:31.654Z,100384.19
2022-09-14T02:02:29.742Z,100398.25
2022-09-14T02:05:08.456Z,100404.06
2022-09-14T02:07:37.727Z,100399.28
2022-09-14T02:10:09.770Z,100406.31
2022-09-14T02:12:36.673Z,100407.56
2022-09-14T02:15:05.264Z,100393.06
2022-09-14T02:17:32.032Z,100405.34
2022-09-14T02:20:07.141Z,100396.69
2022-09-14T02:22:33.994Z,100395.25
2022-09-14T02:25:01.131Z,100389.25
2022-09-14T02:27:27.735Z,100381.31
2022-09-14T02:29:54.954Z,100387.88
2022-09-14T02:32:29.587Z,100392.44
2022-09-14T02:35:28.346Z,100390.50
2022-09-14T02:38:00.663Z,100389.34
2022-09-14T02:40:46.410Z,100377.28
2022-09-14T02:43:29.251Z,100374.53
2022-09-14T02:46:29.437Z,100371.84
2022-09-14T02:49:06.645Z,100375.97
2022-09-14T02:51:50.011Z,100372.47
2022-09-14T02:54:24.322Z,100380.66
2022-09-14T02:56:51.003Z,100383.47
2022-09-14T02:59:18.551Z,100379.41
2022-09-14T03:01:45.303Z,100378.72
2022-09-14T03:04:11.958Z,100378.66
2022-09-14T03:06:38.720Z,100364.94
2022-09-14T03:09:05.696Z,100372.44
2022-09-14T03:11:32.364Z,100369.47
2022-09-14T03:13:58.947Z,100366.31
2022-09-14T03:16:25.670Z,100367.69
2022-09-14T03:18:52.514Z,100364.97
2022-09-14T03:21:19.835Z,100364.94
2022-09-14T03:23:55.175Z,100356.13
2022-09-14T03:26:24.777Z,100351.88
2022-09-14T03:28:53.244Z,100362.91
2022-09-14T03:31:20.926Z,100355.59
2022-09-14T03:33:52.297Z,100352.63
2022-09-14T03:36:20.461Z,100364.41
2022-09-14T03:38:51.201Z,100355.72
2022-09-14T03:41:18.540Z,100368.31
2022-09-14T03:43:46.126Z,100365.75
2022-09-14T03:46:16.167Z,100371.47
2022-09-14T03:48:43.318Z,100367.19
2022-09-14T03:51:12.279Z,100379.84
2022-09-14T03:53:40.142Z,100371.16
2022-09-14T03:56:16.758Z,100370.88
2022-09-14T03:58:45.668Z,100373.91
2022-09-14T04:01:18.164Z,100362.88
2022-09-14T04:03:45.837Z,100348.19
2022-09-14T04:06:14.151Z,100332.19
2022-09-14T04:08:41.910Z,100339.38
2022-09-14T04:11:15.914Z,100352.38
2022-09-14T04:13:43.133Z,100346.16
2022-09-14T04:16:10.581Z,100345.66
2022-09-14T04:18:37.340Z,100341.53
2022-09-14T04:21:08.713Z,100360.44
2022-09-14T04:23:51.355Z,100366.03
2022-09-14T04:26:27.729Z,100352.31
2022-09-14T04:28:56.530Z,100342.81
2022-09-14T04:31:24.332Z,100329.28
2022-09-14T04:33:51.378Z,100337.78
2022-09-14T04:36:28.129Z,100335.34
2022-09-14T04:38:57.568Z,100329.88
2022-09-14T04:41:25.432Z,100339.06
2022-09-14T04:43:54.258Z,100335.06
2022-09-14T04:46:28.495Z,100333.81
2022-09-14T04:48:55.463Z,100324.53
2022-09-14T04:51:26.485Z,100338.41
2022-09-14T04:53:56.411Z,100341.78
2022-09-14T04:56:24.314Z,100330.25
2022-09-14T04:58:55.464Z,100333.97
2022-09-14T05:01:26.611Z,100328.88
2022-09-14T05:03:53.920Z,100340.22
2022-09-14T05:06:29.658Z,100347.63
2022-09-14T05:08:57.552Z,100339.03
2022-09-14T05:11:29.020Z,100336.22
2022-09-14T05:13:57.716Z,100338.09
2022-09-14T05:16:34.584Z,100334.28
2022-09-14T05:19:05.291Z,100341.16
2022-09-14T05:21:34.597Z,100346.78
2022-09-14T05:24:05.748Z,100341.91
2022-09-14T05:26:32.933Z,100337.59
2022-09-14T05:29:01.766Z,100320.69
2022-09-14T05:31:30.158Z,100358.63
2022-09-14T05:33:57.348Z,100346.69
2022-09-14T05:36:25.357Z,100336.84
2022-09-14T05:38:52.392Z,100338.66
2022-09-14T05:41:19.336Z,100324.13
2022-09-14T05:43:46.551Z,100324.13
2022-09-14T05:46:22.121Z,100325.81
2022-09-14T05:48:51.588Z,100312.25
2022-09-14T05:51:24.997Z,100317.81
2022-09-14T05:53:55.884Z,100317.31
2022-09-14T05:56:26.083Z,100315.34
2022-09-14T05:58:53.126Z,100315.41
2022-09-14T06:01:22.714Z,100308.50
2022-09-14T06:03:50.873Z,100318.75
2022-09-14T06:06:19.619Z,100313.22
2022-09-14T06:08:50.069Z,100318.25
2022-09-14T06:11:20.122Z,100314.50
2022-09-14T06:13:47.103Z,100297.38
2022-09-14T06:16:20.037Z,100300.22
2022-09-14T06:18:48.667Z,100304.84
2022-09-14T06:21:19.185Z,100297.31
2022-09-14T06:23:47.405Z,100301.84
2022-09-14T06:26:14.249Z,100291.09
2022-09-14T06:28:41.346Z,100291.94
2022-09-14T06:31:09.897Z,100300.22
2022-09-14T06:33:37.054Z,100296.63
2022-09-14T06:36:09.606Z,100291.19
2022-09-14T06:38:36.350Z,100300.00
2022-09-14T06:41:05.375Z,100299.94
2022-09-14T06:43:35.953Z,100293.03
2022-09-14T06:46:04.572Z,100300.53
2022-09-14T06:48:35.410Z,100291.53
2022-09-14T06:51:24.304Z,100294.34
2022-09-14T06:53:51.584Z,100298.78
2022-09-14T06:56:18.996Z,100307.50
2022-09-14T06:58:46.192Z,100294.28
2022-09-14T07:01:17.302Z,100311.16
2022-09-14T07:03:44.612Z,100300.78
2022-09-14T07:06:15.785Z,100304.31
2022-09-14T07:08:42.883Z,100304.69
2022-09-14T07:11:12.816Z,100303.81
2022-09-14T07:13:39.911Z,100300.91
2022-09-14T07:16:08.185Z,100306.75
2022-09-14T07:18:35.800Z,100294.88
2022-09-14T07:21:15.388Z,100301.88
2022-09-14T07:23:45.103Z,100305.06
2022-09-14T07:26:28.002Z,100305.78
2022-09-14T07:29:03.955Z,100304.19
2022-09-14T07:31:35.958Z,100307.63
2022-09-14T07:34:04.879Z,100314.59
2022-09-14T07:36:35.192Z,100325.06
2022-09-14T07:39:07.719Z,100319.19
2022-09-14T07:41:35.649Z,100312.22
2022-09-14T07:44:06.173Z,100305.66
2022-09-14T07:46:39.031Z,100299.66
2022-09-14T07:49:07.815Z,100300.16
2022-09-14T07:51:36.748Z,100305.69
2022-09-14T07:54:06.205Z,100310.06
2022-09-14T07:56:34.865Z,100303.34
2022-09-14T07:59:24.223Z,100297.25
2022-09-14T08:01:49.995Z,100307.25
2022-09-14T08:04:17.020Z,100310.25
2022-09-14T08:06:43.768Z,100292.06
2022-09-14T08:09:10.602Z,100302.34
2022-09-14T08:11:38.607Z,100299.09
2022-09-14T08:14:11.511Z,100296.34
2022-09-14T08:16:40.343Z,100297.63
2022-09-14T08:19:13.303Z,100293.69
2022-09-14T08:21:45.616Z,100290.69
2022-09-14T08:24:14.816Z,100294.13
2022-09-14T08:26:41.591Z,100286.75
2022-09-14T08:29:08.295Z,100306.00
2022-09-14T08:31:42.579Z,100287.06
2022-09-14T08:34:09.494Z,100278.78
2022-09-14T08:36:39.261Z,100282.81
2022-09-14T08:39:11.897Z,100285.94
2022-09-14T08:41:41.262Z,100282.53
2022-09-14T08:44:31.221Z,100294.69
2022-09-14T08:47:12.124Z,100288.34
2022-09-14T08:50:12.337Z,100283.66
2022-09-14T08:52:55.324Z,100287.31
2022-09-14T08:55:45.734Z,100286.50
2022-09-14T08:59:09.844Z,100277.66
2022-09-14T09:02:01.503Z,100275.22
2022-09-14T09:04:53.777Z,100250.63
2022-09-14T09:07:45.292Z,100276.22
2022-09-14T09:10:13.813Z,100269.72
2022-09-14T09:12:50.496Z,100268.84
2022-09-14T09:15:28.070Z,100270.09
2022-09-14T09:18:32.352Z,100273.66
2022-09-14T09:21:17.682Z,100266.69
2022-09-14T09:23:44.755Z,100264.00
2022-09-14T09:26:25.318Z,100264.03
2022-09-14T09:28:57.463Z,100266.16
2022-09-14T09:31:39.518Z,100267.53
2022-09-14T09:34:06.459Z,100264.31
2022-09-14T09:36:46.778Z,100261.41
2022-09-14T09:39:14.933Z,100266.72
2022-09-14T09:41:53.032Z,100269.59
2022-09-14T09:44:19.684Z,100245.75
2022-09-14T09:47:00.858Z,100251.59
2022-09-14T09:49:37.762Z,100251.53
2022-09-14T09:52:16.793Z,100249.91
2022-09-14T09:54:51.436Z,100245.19
2022-09-14T09:57:34.226Z,100249.50
2022-09-14T10:00:21.815Z,100252.09
2022-09-14T10:02:49.326Z,100239.19
2022-09-14T10:05:22.488Z,100245.19
2022-09-14T10:07:58.522Z,100241.31
2022-09-14T10:10:43.085Z,100241.88
2022-09-14T10:13:29.792Z,100235.06
2022-09-14T10:16:18.627Z,100246.31
2022-09-14T10:18:49.454Z,100239.00
2022-09-14T10:21:21.938Z,100225.06
2022-09-14T10:24:20.422Z,100226.72
2022-09-14T10:26:47.075Z,100227.38
2022-09-14T10:29:35.498Z,100228.88
2022-09-14T10:32:20.597Z,100220.88
2022-09-14T10:34:47.249Z,100217.91
2022-09-14T10:37:56.485Z,100215.84
2022-09-14T10:40:37.595Z,100217.91
2022-09-14T10:43:15.463Z,100212.38
2022-09-14T10:45:51.847Z,100222.75
2022-09-14T10:48:50.425Z,100214.81
2022-09-14T10:51:39.342Z,100206.16
2022-09-14T10:54:47.667Z,100210.59
2022-09-14T10:57:51.001Z,100220.78
2022-09-14T11:00:21.036Z,100222.06
2022-09-14T11:02:57.524Z,100214.44
2022-09-14T11:05:39.636Z,100213.75
2022-09-14T11:08:26.675Z,100218.59
2022-09-14T11:11:33.575Z,100220.19
2022-09-14T11:14:45.339Z,100210.91
2022-09-14T11:18:03.040Z,100205.97
2022-09-14T11:21:17.632Z,100198.09
2022-09-14T11:24:05.969Z,100209.41
2022-09-14T11:26:51.464Z,100196.97
2022-09-14T11:29:46.500Z,100192.19
2022-09-14T11:32:45.620Z,100183.91
2022-09-14T11:35:36.909Z,100204.47
2022-09-14T11:38:12.796Z,100190.16
2022-09-14T11:40:55.169Z,100190.00
2022-09-14T11:43:49.450Z,100200.13
2022-09-14T11:46:45.113Z,100200.53
2022-09-14T11:49:39.720Z,100199.97
2022-09-14T11:52:12.330Z,100193.28
2022-09-14T11:54:46.603Z,100186.00
2022-09-14T11:57:33.235Z,100189.56
2022-09-14T12:00:24.043Z,100191.22
2022-09-14T12:03:14.447Z,100185.78
2022-09-14T12:05:44.489Z,100177.81
2022-09-14T12:08:35.427Z,100156.31
2022-09-14T12:11:31.235Z,100171.34
2022-09-14T12:14:36.654Z,100178.41
2022-09-14T12:17:41.011Z,100168.72
2022-09-14T12:20:29.356Z,100186.50
2022-09-14T12:23:26.629Z,100182.25
2022-09-14T12:26:11.559Z,100177.66
2022-09-14T12:28:40.054Z,100184.56
2022-09-14T12:31:13.891Z,100181.72
2022-09-14T12:33:43.685Z,100168.41
2022-09-14T12:36:22.817Z,100171.28
2022-09-14T12:38:49.403Z,100179.44
2022-09-14T12:41:15.913Z,100176.19
2022-09-14T12:43:42.477Z,100166.88
2022-09-14T12:46:21.438Z,100155.34
2022-09-14T12:48:48.299Z,100151.06
2022-09-14T12:51:28.125Z,100144.88
2022-09-14T12:54:09.869Z,100151.38
2022-09-14T12:56:54.599Z,100145.94
2022-09-14T12:59:57.229Z,100142.16
2022-09-14T13:02:59.865Z,100137.03
2022-09-14T13:05:31.728Z,100117.78
2022-09-14T13:07:58.810Z,100111.47
2022-09-14T13:10:32.827Z,100121.00
2022-09-14T13:13:02.791Z,100123.06
2022-09-14T13:15:37.279Z,100119.84
2022-09-14T13:18:23.636Z,100124.97
2022-09-14T13:20:58.719Z,100130.47
2022-09-14T13:23:39.332Z,100128.38
2022-09-14T13:26:16.024Z,100129.59
2022-09-14T13:28:46.797Z,100121.06
2022-09-14T13:31:21.377Z,100117.16
2022-09-14T13:33:51.647Z,100117.53
2022-09-14T13:36:24.157Z,100113.56
2022-09-14T13:38:51.944Z,100114.47
2022-09-14T13:41:22.859Z,100110.44
2022-09-14T13:43:54.270Z,100108.84
2022-09-14T13:46:23.476Z,100101.44
2022-09-14T13:48:51.562Z,100095.66
2022-09-14T13:51:25.860Z,100098.00
2022-09-14T13:53:55.868Z,100057.19
2022-09-14T13:56:33.086Z,100097.81
2022-09-14T13:59:09.159Z,100091.06
2022-09-14T14:01:58.510Z,100099.28
2022-09-14T14:04:39.073Z,100101.78
2022-09-14T14:07:19.072Z,100093.81
2022-09-14T14:09:58.322Z,100080.63
2022-09-14T14:12:36.931Z,100083.22
2022-09-14T14:15:09.347Z,100071.84
2022-09-14T14:17:39.127Z,100081.19
2022-09-14T14:20:24.053Z,100075.28
2022-09-14T14:23:08.491Z,100070.88
2022-09-14T14:25:45.483Z,100078.03
2022-09-14T14:28:28.591Z,100073.28
2022-09-14T14:30:57.878Z,100070.28
2022-09-14T14:33:25.089Z,100051.81
2022-09-14T14:35:54.354Z,100076.94
2022-09-14T14:38:23.413Z,100070.28
2022-09-14T14:40:54.336Z,100077.00
2022-09-14T14:43:25.234Z,100073.50
2022-09-14T14:46:00.977Z,100077.38
2022-09-14T14:48:29.216Z,100047.94
2022-09-14T14:50:56.269Z,100072.47
2022-09-14T14:53:24.607Z,100070.91
2022-09-14T14:55:53.120Z,100076.50
2022-09-14T14:58:21.835Z,100065.50
2022-09-14T15:00:49.130Z,100062.69
2022-09-14T15:03:16.657Z,100048.34
2022-09-14T15:05:45.193Z,100045.38
2022-09-14T15:08:14.518Z,100036.03
2022-09-14T15:10:41.297Z,100043.31
2022-09-14T15:13:10.356Z,100037.75
2022-09-14T15:15:37.091Z,100036.06
2022-09-14T15:18:03.782Z,100034.66
2022-09-14T15:20:30.420Z,100042.03
2022-09-14T15:22:57.079Z,100033.50
2022-09-14T15:25:23.700Z,100027.44
2022-09-14T15:27:50.413Z,100035.56
2022-09-14T15:30:17.424Z,100035.91
2022-09-14T15:32:44.641Z,100025.16
2022-09-14T15:35:14.185Z,100019.97
2022-09-14T15:37:41.770Z,100020.22
2022-09-14T15:40:09.587Z,100014.75
2022-09-14T15:42:36.240Z,100019.50
2022-09-14T15:45:03.837Z,100015.13
2022-09-14T15:47:35.487Z,100008.09
2022-09-14T15:50:03.598Z,100021.03
2022-09-14T15:52:30.242Z,100014.00
2022-09-14T15:54:56.871Z,100009.97
2022-09-14T15:57:23.556Z,100007.28
2022-09-14T15:59:50.302Z,100020.00
2022-09-14T16:02:20.049Z,100021.63
2022-09-14T16:04:46.730Z,99999.06
2022-09-14T16:07:13.912Z,100033.31
2022-09-14T16:09:42.383Z,100025.19
2022-09-14T16:12:11.820Z,100029.38
2022-09-14T16:14:38.680Z,100038.31
2022-09-14T16:17:05.884Z,100026.31
2022-09-14T16:19:32.672Z,100036.91
2022-09-14T16:21:59.640Z,100033.81
2022-09-14T16:24:27.588Z,100025.03
2022-09-14T16:26:55.178Z,100027.09
2022-09-14T16:29:24.111Z,100025.88
2022-09-14T16:31:51.640Z,100016.94
2022-09-14T16:34:28.735Z,100039.19
2022-09-14T16:36:58.511Z,100034.81
2022-09-14T16:39:29.412Z,100028.63
2022-09-14T16:41:56.697Z,100035.03
2022-09-14T16:44:26.829Z,100035.03
2022-09-14T16:46:55.707Z,100034.00
2022-09-14T16:49:27.190Z,100021.31
2022-09-14T16:51:56.191Z,100016.66
2022-09-14T16:54:25.407Z,100018.38
2022-09-14T16:56:56.781Z,100012.78
2022-09-14T16:59:26.648Z,100020.69
2022-09-14T17:01:55.314Z,100010.09
2022-09-14T17:04:23.751Z,100010.72
2022-09-14T17:06:51.613Z,100008.63
2022-09-14T17:09:23.793Z,100010.66
2022-09-14T17:11:50.485Z,100008.38
2022-09-14T17:14:20.758Z,100001.94
2022-09-14T17:16:48.316Z,99995.00
2022-09-14T17:19:15.540Z,100007.19
2022-09-14T17:21:45.069Z,99983.69
2022-09-14T17:24:13.000Z,100007.13
2022-09-14T17:26:40.123Z,99980.19
2022-09-14T17:29:07.027Z,99996.28
2022-09-14T17:31:38.064Z,99990.31
2022-09-14T17:34:07.452Z,99997.19
2022-09-14T17:36:35.082Z,99991.09
2022-09-14T17:39:07.963Z,99997.38
2022-09-14T17:41:38.922Z,100004.00
2022-09-14T17:44:07.391Z,100000.06
2022-09-14T17:46:35.060Z,99997.94
2022-09-14T17:49:04.658Z,99991.69
2022-09-14T17:51:32.796Z,99988.38
2022-09-14T17:54:01.305Z,99988.56
2022-09-14T17:56:29.641Z,99983.59
2022-09-14T17:59:15.231Z,99980.06
2022-09-14T18:01:41.949Z,99988.63
2022-09-14T18:04:14.006Z,99989.94
2022-09-14T18:06:44.149Z,99985.63
2022-09-14T18:09:21.853Z,99976.91
2022-09-14T18:11:50.472Z,99987.72
2022-09-14T18:14:17.450Z,99981.59
2022-09-14T18:16:45.157Z,99978.69
2022-09-14T18:19:12.236Z,99980.72
2022-09-14T18:21:39.199Z,99985.50
2022-09-14T18:24:06.579Z,99986.84
2022-09-14T18:26:33.381Z,99984.66
2022-09-14T18:29:00.117Z,99979.69
2022-09-14T18:31:27.348Z,99979.69
2022-09-14T18:33:59.080Z,99981.72
2022-09-14T18:36:28.965Z,99974.66
2022-09-14T18:38:56.990Z,99986.47
2022-09-14T18:41:23.644Z,99970.00
2022-09-14T18:43:52.213Z,99982.00
2022-09-14T18:46:19.373Z,99984.00
2022-09-14T18:48:50.350Z,99979.19
2022-09-14T18:51:17.046Z,99974.34
2022-09-14T18:53:43.645Z,99974.91
2022-09-14T18:56:14.234Z,99979.69
2022-09-14T18:58:47.243Z,99996.44
2022-09-14T19:01:15.083Z,99988.69
2022-09-14T19:03:43.430Z,99994.59
2022-09-14T19:06:14.030Z,99996.44
2022-09-14T19:08:41.543Z,99982.91
2022-09-14T19:11:15.303Z,99979.94
2022-09-14T19:13:42.239Z,99984.97
2022-09-14T19:16:12.414Z,99999.88
2022-09-14T19:18:40.704Z,99981.69
2022-09-14T19:21:14.300Z,99975.28
2022-09-14T19:23:42.933Z,99989.41
2022-09-14T19:26:17.234Z,99993.31
2022-09-14T19:28:44.651Z,99996.41
2022-09-14T19:31:17.764Z,99993.44
2022-09-14T19:33:45.819Z,99989.25
2022-09-14T19:36:22.387Z,99986.78
2022-09-14T19:38:51.824Z,99993.19
2022-09-14T19:41:19.950Z,99994.00
2022-09-14T19:43:47.220Z,99997.06
2022-09-14T19:46:18.947Z,99999.97
2022-09-14T19:48:47.038Z,100002.63
2022-09-14T19:51:23.179Z,99993.31
2022-09-14T19:53:52.333Z,99978.53
2022-09-14T19:56:25.343Z,99998.19
2022-09-14T19:58:54.588Z,100002.13
2022-09-14T20:01:25.523Z,99997.97
2022-09-14T20:03:52.873Z,100002.81
2022-09-14T20:06:25.533Z,99999.59
2022-09-14T20:09:18.117Z,100001.88
2022-09-14T20:11:46.984Z,99998.81
2022-09-14T20:14:23.521Z,100010.38
2022-09-14T20:16:53.977Z,100006.47
2022-09-14T20:19:24.579Z,100009.09
2022-09-14T20:21:52.348Z,100009.97
2022-09-14T20:24:26.237Z,100009.88
2022-09-14T20:26:56.680Z,100009.75
2022-09-14T20:29:25.041Z,99986.59
2022-09-14T20:31:52.339Z,100006.69
2022-09-14T20:34:20.724Z,100004.09
2022-09-14T20:36:52.314Z,100001.06
2022-09-14T20:39:21.644Z,99998.75
2022-09-14T20:41:48.810Z,100010.09
2022-09-14T20:44:16.998Z,99990.25
2022-09-14T20:46:45.157Z,100014.09
2022-09-14T20:49:16.908Z,100012.31
2022-09-14T20:51:43.744Z,100019.22
2022-09-14T20:54:13.936Z,100016.72
2022-09-14T20:56:41.791Z,100013.16
2022-09-14T20:59:15.876Z,100024.06
2022-09-14T21:01:45.502Z,100034.47
2022-09-14T21:04:21.175Z,100017.78
2022-09-14T21:06:52.632Z,100020.78
2022-09-14T21:09:21.900Z,100029.31
2022-09-14T21:11:48.586Z,100025.09
2022-09-14T21:14:17.917Z,99995.56
2022-09-14T21:16:48.459Z,100032.19
2022-09-14T21:19:20.440Z,100033.44
2022-09-14T21:21:48.772Z,100021.72
2022-09-14T21:24:17.511Z,100022.47
2022-09-14T21:26:45.374Z,100027.88
2022-09-14T21:29:20.319Z,100023.59
2022-09-14T21:31:48.659Z,100029.25
2022-09-14T21:34:16.071Z,100038.84
2022-09-14T21:36:46.702Z,100026.53
2022-09-14T21:39:23.442Z,100025.09
2022-09-14T21:41:58.071Z,100026.03
2022-09-14T21:44:34.079Z,100032.25
2022-09-14T21:47:02.109Z,100028.19
2022-09-14T21:49:28.861Z,100028.88
2022-09-14T21:51:55.586Z,100029.91
2022-09-14T21:54:22.467Z,100028.00
2022-09-14T21:56:49.372Z,100023.09
2022-09-14T21:59:20.283Z,100019.72
2022-09-14T22:01:48.880Z,100014.88
2022-09-14T22:04:19.572Z,100028.47
2022-09-14T22:06:46.858Z,100026.25
2022-09-14T22:09:16.877Z,100031.31
2022-09-14T22:11:44.482Z,100024.56
2022-09-14T22:14:20.644Z,100024.53
2022-09-14T22:16:48.956Z,100012.97
2022-09-14T22:19:22.866Z,100023.50
2022-09-14T22:21:50.909Z,100014.41
2022-09-14T22:24:21.799Z,100023.03
2022-09-14T22:26:50.239Z,100023.75
2022-09-14T22:29:18.441Z,100022.34
2022-09-14T22:31:46.228Z,100023.38
2022-09-14T22:34:14.334Z,100003.03
2022-09-14T22:36:40.976Z,100021.28
2022-09-14T22:39:09.129Z,100017.22
2022-09-14T22:41:36.701Z,99983.13
2022-09-14T22:44:04.551Z,100015.41
2022-09-14T22:46:31.425Z,100016.75
2022-09-14T22:48:58.425Z,100019.50
2022-09-14T22:51:27.984Z,100015.38
2022-09-14T22:53:54.640Z,100011.66
2022-09-14T22:56:30.149Z,100008.56
2022-09-14T22:58:58.042Z,100011.97
2022-09-14T23:01:29.359Z,100008.41
2022-09-14T23:03:59.955Z,100011.56
2022-09-14T23:06:35.180Z,100006.88
2022-09-14T23:09:02.557Z,100011.16
2022-09-14T23:11:30.090Z,100012.34
2022-09-14T23:13:58.744Z,100013.81
2022-09-14T23:16:29.535Z,100009.66
2022-09-14T23:19:00.469Z,100009.03
2022-09-14T23:21:28.959Z,100007.31
2022-09-14T23:23:59.127Z,100005.69
2022-09-14T23:26:26.488Z,100007.19
2022-09-14T23:29:02.832Z,99999.34
2022-09-14T23:31:32.103Z,100005.00
2022-09-14T23:34:01.300Z,99996.81
2022-09-14T23:36:28.431Z,100004.47
2022-09-14T23:38:55.256Z,100001.16
2022-09-14T23:41:24.170Z,99996.84
2022-09-14T23:43:51.743Z,100000.47
2022-09-14T23:46:19.457Z,100000.00
2022-09-14T23:48:46.995Z,99999.06
2022-09-14T23:51:14.214Z,99998.47
2022-09-14T23:53:41.578Z,99993.28
2022-09-14T23:56:09.239Z,99981.84
2022-09-14T23:58:36.139Z,99994.03
